Time;durP1;ratioP1;P1;durP2;ratioP2;P2;SDS_P1;SDS_P2;PMS_P1;PMS_P2;Temp;Humidity;BMP_temperature;BMP_pressure;BME280_temperature;BME280_humidity;BME280_pressure;Samples;Min_cycle;Max_cycle;Signal;HPM_P1;HPM_P2
2022/08/23 00:01:48;;;;;;;4.78;3.35;;;;;;;15.90;98.84;96547.06;5009756;28;20034;-67
2022/08/23 00:04:18;;;;;;;6.93;3.75;;;;;;;15.96;100.00;96545.47;5002466;28;20038;-66
2022/08/23 00:06:46;;;;;;;6.45;3.20;;;;;;;15.98;100.00;96545.84;5011407;28;20034;-66
2022/08/23 00:09:12;;;;;;;6.30;3.22;;;;;;;15.96;100.00;96553.75;5012306;28;20064;-67
2022/08/23 00:12:04;;;;;;;6.82;3.58;;;;;;;15.93;100.00;96546.28;5026729;28;20061;-67
2022/08/23 00:14:32;;;;;;;6.85;3.47;;;;;;;15.73;100.00;96540.47;5028869;28;20037;-66
2022/08/23 00:16:59;;;;;;;6.32;3.70;;;;;;;15.60;100.00;96545.66;5022927;28;20093;-66
2022/08/23 00:19:25;;;;;;;5.60;3.38;;;;;;;15.54;100.00;96537.03;5011917;28;20029;-67
2022/08/23 00:21:53;;;;;;;4.78;3.13;;;;;;;15.60;100.00;96538.16;5012091;28;20037;-64
2022/08/23 00:24:20;;;;;;;5.53;3.50;;;;;;;15.58;100.00;96535.03;5012231;28;20475;-68
2022/08/23 00:26:48;;;;;;;10.57;3.67;;;;;;;15.39;100.00;96530.78;5010436;28;20092;-66
2022/08/23 00:29:14;;;;;;;6.43;4.60;;;;;;;15.01;100.00;96535.31;5010594;28;20037;-66
2022/08/23 00:31:39;;;;;;;8.02;3.75;;;;;;;14.95;100.00;96534.16;5011167;28;20025;-66
2022/08/23 00:34:05;;;;;;;6.30;3.88;;;;;;;15.08;100.00;96540.78;5018602;28;20038;-67
2022/08/23 00:36:31;;;;;;;6.25;3.88;;;;;;;15.15;100.00;96540.00;5020045;28;20111;-65
2022/08/23 00:38:56;;;;;;;8.00;3.90;;;;;;;15.14;100.00;96544.69;5013391;28;20029;-65
2022/08/23 00:41:22;;;;;;;5.85;4.35;;;;;;;15.14;100.00;96541.94;5010405;28;20484;-66
2022/08/23 00:47:41;;;;;;;7.60;3.80;;;;;;;15.19;100.00;96546.25;5014529;28;20126;-66
2022/08/23 00:49:54;;;;;;;7.50;4.43;;;;;;;15.21;100.00;96544.66;5011568;28;20136;-66
2022/08/23 00:52:33;;;;;;;5.63;4.47;;;;;;;15.17;100.00;96543.91;5014031;28;20033;-66
2022/08/23 00:54:58;;;;;;;6.95;4.05;;;;;;;15.21;100.00;96547.44;5022158;28;20033;-66
2022/08/23 00:57:26;;;;;;;8.73;4.35;;;;;;;14.98;100.00;96547.13;5014168;28;20034;-65
2022/08/23 00:59:51;;;;;;;8.30;3.55;;;;;;;14.90;100.00;96551.88;5013092;28;20716;-65
2022/08/23 01:02:17;;;;;;;7.10;3.78;;;;;;;14.80;100.00;96550.75;5014552;28;20109;-66
2022/08/23 01:04:54;;;;;;;6.78;3.78;;;;;;;14.68;100.00;96551.16;5014246;28;20402;-68
2022/08/23 01:07:25;;;;;;;6.93;3.72;;;;;;;14.71;100.00;96555.84;5004866;28;20033;-65
2022/08/23 01:09:56;;;;;;;7.97;3.92;;;;;;;14.76;100.00;96551.94;5012466;28;20026;-65
2022/08/23 01:12:33;;;;;;;8.65;4.20;;;;;;;14.78;100.00;96544.03;5013393;28;20030;-67
2022/08/23 01:15:05;;;;;;;6.93;3.88;;;;;;;14.74;100.00;96551.53;5012908;28;20486;-67
2022/08/23 01:17:40;;;;;;;6.47;3.90;;;;;;;14.79;100.00;96545.63;5013783;28;20025;-66
2022/08/23 01:20:11;;;;;;;8.88;5.20;;;;;;;14.37;100.00;96558.25;5015665;28;20041;-66
2022/08/23 01:23:02;;;;;;;9.57;4.70;;;;;;;13.79;100.00;96554.69;5033553;28;20030;-65
2022/08/23 01:25:31;;;;;;;9.10;5.47;;;;;;;13.61;100.00;96551.91;5021648;28;20117;-67
2022/08/23 01:27:57;;;;;;;6.65;4.60;;;;;;;13.51;100.00;96559.75;5011846;28;20030;-66
2022/08/23 01:30:27;;;;;;;8.10;4.60;;;;;;;13.55;100.00;96555.03;5017933;28;20080;-66
2022/08/23 01:32:54;;;;;;;;;;;;;;;13.66;100.00;96563.31;5014849;28;20029;-66
2022/08/23 01:35:31;;;;;;;5.70;4.38;;;;;;;13.53;100.00;96559.38;5004664;28;19913;-67
2022/08/23 01:37:56;;;;;;;7.32;4.82;;;;;;;13.43;100.00;96566.41;5013578;28;20340;-67
2022/08/23 01:40:21;;;;;;;6.20;4.22;;;;;;;13.48;100.00;96555.03;5013594;28;20037;-67
2022/08/23 01:42:48;;;;;;;9.00;4.80;;;;;;;13.37;100.00;96571.50;5011305;28;20038;-65
2022/08/23 01:45:15;;;;;;;9.73;5.13;;;;;;;13.06;100.00;96561.16;5006081;28;20483;-67
2022/08/23 01:47:41;;;;;;;8.25;5.07;;;;;;;12.97;100.00;96561.50;5013230;28;20066;-66
2022/08/23 01:50:08;;;;;;;7.25;5.05;;;;;;;13.43;100.00;96573.88;5019217;28;20025;-66
2022/08/23 01:52:35;;;;;;;9.18;4.78;;;;;;;13.58;100.00;96573.53;5031551;28;20033;-66
2022/08/23 01:55:02;;;;;;;10.80;5.30;;;;;;;13.53;100.00;96576.66;5019528;28;20462;-66
2022/08/23 01:57:28;;;;;;;7.13;5.05;;;;;;;13.37;100.00;96576.22;5012656;28;20034;-66
2022/08/23 01:59:55;;;;;;;6.55;4.70;;;;;;;13.44;100.00;96569.97;5011788;28;20038;-66
2022/08/23 02:02:20;;;;;;;6.63;4.60;;;;;;;13.59;100.00;96568.81;5012923;28;20029;-65
2022/08/23 02:04:46;;;;;;;10.57;5.20;;;;;;;13.65;100.00;96575.53;5011926;28;20036;-65
2022/08/23 02:07:11;;;;;;;10.45;5.32;;;;;;;13.51;100.00;96581.00;5003346;28;20491;-66
2022/08/23 02:09:37;;;;;;;10.63;5.13;;;;;;;12.86;100.00;96579.91;5011474;28;20837;-65
2022/08/23 02:12:02;;;;;;;8.48;5.38;;;;;;;12.60;100.00;96578.94;5012921;28;20037;-67
2022/08/23 02:14:28;;;;;;;11.68;5.55;;;;;;;12.40;100.00;96575.69;5010844;28;20038;-66
2022/08/23 02:16:54;;;;;;;11.93;5.65;;;;;;;12.33;100.00;96584.66;5012491;28;20533;-66
2022/08/23 02:19:20;;;;;;;7.55;5.38;;;;;;;12.43;100.00;96588.66;5012085;28;20026;-65
2022/08/23 02:21:46;;;;;;;8.98;5.13;;;;;;;12.62;100.00;96593.91;5010782;28;20030;-64
2022/08/23 02:24:15;;;;;;;7.47;5.18;;;;;;;12.61;100.00;96595.06;5012777;28;20029;-64
2022/08/23 02:26:44;;;;;;;9.97;5.30;;;;;;;12.83;100.00;96600.69;5027803;28;20091;-63
2022/08/23 02:29:11;;;;;;;6.63;4.97;;;;;;;12.95;100.00;96600.38;5026018;28;20030;-66
2022/08/23 02:31:36;;;;;;;8.23;5.10;;;;;;;12.92;100.00;96601.13;5019315;28;20030;-66
2022/08/23 02:34:03;;;;;;;14.90;4.97;;;;;;;13.01;100.00;96598.81;5014896;28;20064;-66
2022/08/23 02:36:28;;;;;;;6.07;4.82;;;;;;;13.20;100.00;96600.50;5027321;28;20121;-66
2022/08/23 02:38:54;;;;;;;6.38;4.72;;;;;;;13.37;100.00;96600.97;5012535;28;20582;-65
2022/08/23 02:41:21;;;;;;;8.68;4.72;;;;;;;13.48;100.00;96596.28;5011356;28;20030;-65
2022/08/23 02:43:49;;;;;;;7.40;4.60;;;;;;;13.46;100.00;96608.88;5011571;28;20501;-65
2022/08/23 02:46:14;;;;;;;5.47;4.63;;;;;;;13.18;100.00;96611.09;5016442;28;20517;-65
2022/08/23 02:48:40;;;;;;;12.07;4.22;;;;;;;12.91;100.00;96615.25;5020873;28;20037;-66
2022/08/23 02:51:07;;;;;;;5.95;4.75;;;;;;;12.76;100.00;96608.88;5019828;28;20492;-65
2022/08/23 02:53:34;;;;;;;11.05;4.80;;;;;;;12.77;100.00;96615.97;5012355;28;20049;-66
2022/08/23 02:55:59;;;;;;;6.38;5.00;;;;;;;12.82;100.00;96612.88;5011497;28;20026;-65
2022/08/23 02:58:26;;;;;;;8.60;5.03;;;;;;;12.87;100.00;96615.22;5011710;28;20574;-66
2022/08/23 03:00:52;;;;;;;7.18;4.65;;;;;;;12.93;100.00;96610.19;5025856;28;20072;-64
2022/08/23 03:03:18;;;;;;;5.30;4.45;;;;;;;12.98;100.00;96609.78;5007170;28;20056;-66
2022/08/23 03:05:44;;;;;;;8.77;5.10;;;;;;;13.03;100.00;96612.19;5013821;28;20395;-67
2022/08/23 03:08:10;;;;;;;8.32;4.53;;;;;;;13.05;100.00;96607.09;5003485;28;20084;-65
2022/08/23 03:10:40;;;;;;;6.18;4.40;;;;;;;13.05;100.00;96604.34;5013800;28;20101;-65
2022/08/23 03:13:07;;;;;;;7.25;4.50;;;;;;;13.08;100.00;96608.28;5010921;28;20034;-65
2022/08/23 03:15:32;;;;;;;6.90;5.32;;;;;;;13.11;100.00;96611.06;5011062;28;20058;-65
2022/08/23 03:17:58;;;;;;;8.18;4.75;;;;;;;12.93;100.00;96610.19;5010567;28;20120;-64
2022/08/23 03:20:24;;;;;;;8.73;4.85;;;;;;;12.78;100.00;96612.03;4994173;28;20034;-67
2022/08/23 03:22:49;;;;;;;6.53;4.35;;;;;;;12.62;100.00;96613.13;5013076;28;20034;-66
2022/08/23 03:25:14;;;;;;;6.50;4.40;;;;;;;12.54;100.00;96619.72;5012792;28;20036;-65
2022/08/23 03:27:40;;;;;;;6.35;4.90;;;;;;;12.52;100.00;96616.59;5028019;28;20113;-66
2022/08/23 03:30:06;;;;;;;6.75;4.30;;;;;;;12.63;100.00;96611.94;4995537;28;20441;-66
2022/08/23 03:32:32;;;;;;;6.40;4.80;;;;;;;12.68;100.00;96608.06;5014107;28;20033;-64
2022/08/23 03:34:57;;;;;;;5.40;4.32;;;;;;;12.65;100.00;96616.28;5015496;28;20034;-65
2022/08/23 03:37:23;;;;;;;9.63;4.95;;;;;;;12.55;100.00;96612.28;5016550;28;20072;-67
2022/08/23 03:39:48;;;;;;;8.57;4.18;;;;;;;12.46;100.00;96612.63;5018823;28;20029;-67
2022/08/23 03:42:14;;;;;;;10.30;5.68;;;;;;;12.31;100.00;96616.41;5029756;28;20033;-66
2022/08/23 03:44:40;;;;;;;6.70;4.90;;;;;;;12.25;100.00;96615.97;5045546;28;20029;-65
2022/08/23 03:47:06;;;;;;;7.88;4.72;;;;;;;12.27;100.00;96612.84;5028349;28;20040;-67
2022/08/23 03:49:31;;;;;;;5.10;3.95;;;;;;;12.31;100.00;96617.19;5015294;28;20033;-65
2022/08/23 03:51:59;;;;;;;5.85;4.15;;;;;;;12.31;100.00;96619.94;5023550;28;20033;-67
2022/08/23 03:54:25;;;;;;;7.85;4.18;;;;;;;12.34;100.00;96621.94;5022743;28;20128;-66
2022/08/23 03:56:59;;;;;;;4.75;4.05;;;;;;;12.39;100.00;96626.31;5011298;28;20482;-65
2022/08/23 03:59:26;;;;;;;8.63;4.80;;;;;;;12.49;100.00;96633.03;4993902;28;20038;-66
2022/08/23 04:01:52;;;;;;;7.20;4.60;;;;;;;12.53;100.00;96634.66;5009790;28;20026;-65
2022/08/23 04:04:18;;;;;;;7.40;4.82;;;;;;;12.54;100.00;96635.44;5004975;28;20097;-66
2022/08/23 04:06:44;;;;;;;9.13;4.63;;;;;;;12.57;100.00;96634.69;5010459;28;20037;-64
2022/08/23 04:09:14;;;;;;;9.40;5.07;;;;;;;12.65;100.00;96644.53;5003246;28;20032;-66
2022/08/23 04:11:40;;;;;;;8.70;5.28;;;;;;;12.70;100.00;96649.69;5012589;28;20057;-65
2022/08/23 04:14:07;;;;;;;7.57;5.50;;;;;;;12.76;100.00;96655.59;5011903;28;20037;-66
2022/08/23 04:16:36;;;;;;;9.55;4.70;;;;;;;12.84;100.00;96645.44;5007065;28;20390;-66
2022/08/23 04:19:03;;;;;;;10.55;5.80;;;;;;;12.80;100.00;96648.16;4997238;28;20092;-66
2022/08/23 04:21:29;;;;;;;11.63;5.30;;;;;;;12.73;100.00;96650.88;4997698;28;20497;-64
2022/08/23 04:23:55;;;;;;;7.93;5.28;;;;;;;12.63;100.00;96655.13;5014919;28;20092;-65
2022/08/23 04:26:21;;;;;;;7.10;4.40;;;;;;;12.84;100.00;96656.44;5029939;28;20339;-64
2022/08/23 04:28:46;;;;;;;8.98;5.43;;;;;;;12.90;100.00;96655.72;5013355;28;20038;-63
2022/08/23 04:31:13;;;;;;;6.65;5.13;;;;;;;12.87;100.00;96664.72;5009821;28;20058;-65
2022/08/23 04:33:38;;;;;;;9.70;5.65;;;;;;;12.89;100.00;96653.34;5010776;28;20022;-64
2022/08/23 04:36:04;;;;;;;7.35;5.15;;;;;;;12.94;100.00;96663.97;5014245;28;20108;-66
2022/08/23 04:38:29;;;;;;;8.20;5.00;;;;;;;13.03;100.00;96661.66;5013694;28;20037;-64
2022/08/23 04:43:50;;;;;;;8.27;5.25;;;;;;;13.18;100.00;96665.28;4961489;28;20043;-63
2022/08/23 04:46:16;;;;;;;8.63;4.95;;;;;;;13.18;100.00;96668.84;5013540;28;20516;-67
2022/08/23 04:48:43;;;;;;;7.53;5.32;;;;;;;13.21;100.00;96672.78;5014335;28;20038;-65
2022/08/23 04:51:12;;;;;;;8.73;5.10;;;;;;;13.19;100.00;96667.66;5013826;28;20491;-66
2022/08/23 04:53:38;;;;;;;6.87;5.30;;;;;;;13.30;100.00;96666.94;5014659;28;20479;-68
2022/08/23 04:56:04;;;;;;;11.25;4.50;;;;;;;13.36;100.00;96679.97;5012134;28;20765;-67
2022/08/23 04:58:31;;;;;;;7.72;4.45;;;;;;;13.46;100.00;96674.91;5015214;28;20054;-68
2022/08/23 05:00:59;;;;;;;9.70;4.18;;;;;;;13.51;100.00;96669.81;5012527;28;20034;-66
2022/08/23 05:03:26;;;;;;;8.48;5.15;;;;;;;13.55;100.00;96670.59;5006984;28;20068;-67
2022/08/23 05:05:52;;;;;;;7.47;4.63;;;;;;;13.58;100.00;96677.31;5031637;28;20029;-66
2022/08/23 05:08:18;;;;;;;5.63;3.80;;;;;;;13.66;100.00;96673.41;5030110;28;20022;-64
2022/08/23 05:10:44;;;;;;;11.20;4.38;;;;;;;13.87;100.00;96674.66;5026159;28;20117;-65
2022/08/23 05:13:09;;;;;;;7.13;4.13;;;;;;;14.05;100.00;96683.75;5016734;28;20088;-66
2022/08/23 05:15:35;;;;;;;6.90;3.60;;;;;;;14.88;100.00;96681.09;5013715;28;20040;-64
2022/08/23 05:18:00;;;;;;;5.80;3.50;;;;;;;16.31;100.00;96679.00;5014339;28;20068;-64
2022/08/23 05:20:26;;;;;;;5.13;3.35;;;;;;;17.59;100.00;96684.59;5013298;28;20578;-63
2022/08/23 05:22:53;;;;;;;5.03;3.22;;;;;;;18.83;93.99;96694.41;5017842;28;20109;-64
2022/08/23 05:25:19;;;;;;;7.53;3.47;;;;;;;19.70;87.69;96692.88;5021233;28;20033;-64
2022/08/23 05:27:45;;;;;;;13.55;3.88;;;;;;;20.30;81.55;96684.50;5032248;28;20077;-65
2022/08/23 05:30:11;;;;;;;5.95;2.88;;;;;;;20.20;80.07;96689.88;5016694;28;20053;-65
2022/08/23 05:32:37;;;;;;;11.15;3.47;;;;;;;20.17;80.15;96696.28;5007278;28;20030;-67
2022/08/23 05:35:03;;;;;;;18.13;4.97;;;;;;;21.19;76.40;96693.53;5018315;28;20190;-66
2022/08/23 05:37:29;;;;;;;9.32;2.72;;;;;;;22.61;69.74;96697.50;5032479;28;20478;-66
2022/08/23 05:39:54;;;;;;;5.90;1.90;;;;;;;23.74;63.44;96695.34;5012681;28;20080;-67
2022/08/23 05:42:19;;;;;;;9.10;2.28;;;;;;;24.55;59.43;96696.34;5005061;28;20034;-65
2022/08/23 05:44:45;;;;;;;4.28;2.10;;;;;;;24.89;54.13;96705.03;5011608;28;20029;-67
2022/08/23 05:47:13;;;;;;;2.92;1.90;;;;;;;24.42;54.65;96702.00;5013174;28;20490;-68
2022/08/23 05:49:39;;;;;;;3.90;2.13;;;;;;;24.63;55.45;96707.25;5014282;28;20454;-66
2022/08/23 05:52:07;;;;;;;4.78;2.42;;;;;;;25.29;50.56;96707.78;5017232;28;20042;-66
2022/08/23 05:54:33;;;;;;;6.20;2.22;;;;;;;23.52;56.80;96712.13;5001140;28;20026;-67
2022/08/23 05:56:59;;;;;;;6.18;1.92;;;;;;;25.14;52.22;96709.63;5014826;28;20037;-62
2022/08/23 05:59:25;;;;;;;3.70;2.20;;;;;;;26.04;49.07;96709.38;5016208;28;20037;-65
2022/08/23 06:01:50;;;;;;;5.88;2.35;;;;;;;26.89;46.00;96717.84;5013237;28;20104;-67
2022/08/23 06:04:16;;;;;;;4.55;2.00;;;;;;;27.23;44.49;96715.81;5013362;28;20057;-70
2022/08/23 06:06:42;;;;;;;3.75;1.90;;;;;;;27.71;43.38;96723.44;5012944;28;20494;-70
2022/08/23 06:09:20;;;;;;;4.13;1.90;;;;;;;28.25;41.93;96723.44;5012151;28;20033;-68
2022/08/23 06:11:52;;;;;;;4.80;2.05;;;;;;;28.60;41.45;96725.63;5013422;28;20033;-70
2022/08/23 06:14:21;;;;;;;7.05;2.03;;;;;;;28.54;40.80;96736.81;5012221;28;20153;-69
2022/08/23 06:16:48;;;;;;;2.70;2.03;;;;;;;27.45;43.40;96731.63;5011135;28;20120;-70
2022/08/23 06:19:14;;;;;;;5.65;2.13;;;;;;;26.44;46.25;96736.41;5012814;28;20265;-67
2022/08/23 06:21:41;;;;;;;5.25;2.28;;;;;;;27.26;42.82;96733.75;5012983;28;20044;-67
2022/08/23 06:24:07;;;;;;;5.78;2.05;;;;;;;28.80;41.39;96747.47;5011214;28;20137;-70
2022/08/23 06:26:37;;;;;;;4.45;2.17;;;;;;;28.84;40.60;96750.84;5011221;28;20034;-70
2022/08/23 06:29:07;;;;;;;4.80;1.88;;;;;;;29.47;39.87;96747.69;4994928;28;20037;-68
2022/08/23 06:31:44;;;;;;;5.82;2.00;;;;;;;28.76;39.28;96756.13;5012577;28;20519;-67
2022/08/23 06:34:20;;;;;;;5.55;2.17;;;;;;;27.19;44.58;96748.16;5011337;28;20038;-70
2022/08/23 06:36:55;;;;;;;6.28;1.67;;;;;;;28.52;41.85;96756.22;5012189;28;20034;-69
2022/08/23 06:39:24;;;;;;;5.82;2.33;;;;;;;29.36;40.31;96758.81;5010763;28;20030;-65
2022/08/23 06:41:51;;;;;;;6.15;2.05;;;;;;;29.76;39.46;96760.13;5008156;28;20080;-69
2022/08/23 06:44:18;;;;;;;3.30;2.03;;;;;;;30.26;37.67;96756.31;5012127;28;20036;-68
2022/08/23 06:46:45;;;;;;;6.00;2.13;;;;;;;30.06;37.91;96759.97;5010617;28;20080;-69
2022/08/23 06:49:11;;;;;;;4.20;1.92;;;;;;;30.14;38.23;96763.88;5012122;28;20034;-71
2022/08/23 06:51:41;;;;;;;4.35;1.63;;;;;;;30.79;37.42;96751.41;5011095;28;20105;-70
2022/08/23 06:54:09;;;;;;;7.22;2.42;;;;;;;30.56;37.17;96756.91;5011509;28;20491;-69
2022/08/23 06:56:36;;;;;;;3.63;2.20;;;;;;;31.27;35.67;96766.97;5011689;28;20041;-70
2022/08/23 06:59:05;;;;;;;3.97;2.10;;;;;;;31.15;36.07;96772.56;5012801;28;20040;-68
2022/08/23 07:01:45;;;;;;;6.03;2.25;;;;;;;31.54;36.29;96757.09;4995861;28;20045;-69
2022/08/23 07:04:12;;;;;;;5.70;2.28;;;;;;;27.84;41.64;96757.75;4995897;28;20038;-69
2022/08/23 07:06:38;;;;;;;5.78;2.53;;;;;;;25.14;49.22;96762.84;5010547;28;20025;-70
2022/08/23 07:09:05;;;;;;;6.07;2.83;;;;;;;22.94;56.87;96758.69;5007076;28;20451;-70
2022/08/23 07:11:31;;;;;;;7.63;3.00;;;;;;;24.31;54.26;96762.44;5007244;28;20064;-71
2022/08/23 07:14:02;;;;;;;6.03;2.97;;;;;;;22.68;60.44;96755.13;5014605;28;20029;-70
2022/08/23 07:16:39;;;;;;;6.90;2.80;;;;;;;22.02;60.52;96761.00;5013144;28;20033;-66
2022/08/23 07:19:05;;;;;;;7.22;3.08;;;;;;;22.51;58.60;96757.22;5022125;28;20036;-69
2022/08/23 07:21:31;;;;;;;4.53;2.95;;;;;;;23.96;55.41;96762.50;5018274;28;20064;-70
2022/08/23 07:23:57;;;;;;;3.92;2.70;;;;;;;25.02;49.96;96770.13;5004061;28;20035;-69
2022/08/23 07:26:23;;;;;;;8.30;3.28;;;;;;;23.92;51.31;96773.06;5012658;28;20092;-68
2022/08/23 07:28:49;;;;;;;5.82;3.10;;;;;;;25.66;48.65;96768.72;5012120;28;20030;-69
2022/08/23 07:31:25;;;;;;;3.78;2.58;;;;;;;26.22;46.67;96770.31;5012694;28;20037;-68
2022/08/23 07:33:52;;;;;;;5.93;3.00;;;;;;;26.21;45.68;96771.56;5011212;28;20421;-69
2022/08/23 07:36:21;;;;;;;6.03;2.85;;;;;;;25.18;48.20;96780.31;5006864;28;20037;-69
2022/08/23 07:38:46;;;;;;;3.83;2.85;;;;;;;26.50;46.69;96782.25;5009311;28;20026;-69
2022/08/23 07:41:13;;;;;;;6.00;2.88;;;;;;;27.98;42.06;96786.44;5013199;28;20428;-70
2022/08/23 07:43:40;;;;;;;5.10;2.95;;;;;;;27.34;44.20;96784.81;5027564;28;20152;-68
2022/08/23 07:46:06;;;;;;;4.05;2.88;;;;;;;25.05;48.08;96788.03;5011131;28;20080;-70
2022/08/23 07:48:32;;;;;;;9.48;2.83;;;;;;;25.51;48.50;96785.38;5012866;28;20491;-70
2022/08/23 07:51:02;;;;;;;4.30;3.15;;;;;;;24.84;49.83;96792.47;5012298;28;20084;-70
2022/08/23 07:53:27;;;;;;;5.72;3.17;;;;;;;22.55;57.92;96787.84;5019846;28;20052;-69
2022/08/23 07:55:54;;;;;;;8.98;3.22;;;;;;;24.86;52.83;96787.19;5017928;28;20453;-66
2022/08/23 07:58:20;;;;;;;6.15;3.35;;;;;;;25.36;50.07;96790.81;5014396;28;20045;-68
2022/08/23 08:00:46;;;;;;;5.82;3.00;;;;;;;26.30;47.97;96798.84;5017112;28;20030;-69
2022/08/23 08:03:12;;;;;;;6.65;2.92;;;;;;;27.08;44.99;96799.28;5019726;28;20554;-68
2022/08/23 08:05:38;;;;;;;3.88;2.53;;;;;;;28.00;42.73;96797.97;5022594;28;20029;-70
2022/08/23 08:08:04;;;;;;;4.75;2.65;;;;;;;26.32;46.24;96802.72;5019711;28;20433;-68
2022/08/23 08:10:31;;;;;;;5.97;3.10;;;;;;;25.93;48.38;96801.69;5018605;28;20386;-68
2022/08/23 08:12:56;;;;;;;5.43;3.38;;;;;;;25.10;50.03;96804.22;5017598;28;20034;-70
2022/08/23 08:15:22;;;;;;;7.68;2.95;;;;;;;27.26;45.17;96806.84;5003368;28;20057;-69
2022/08/23 08:17:51;;;;;;;4.63;2.88;;;;;;;27.75;43.54;96802.84;5011900;28;20037;-70
2022/08/23 08:20:21;;;;;;;4.10;2.63;;;;;;;29.87;39.17;96813.91;5000902;28;20042;-70
2022/08/23 08:22:47;;;;;;;6.70;2.55;;;;;;;30.01;38.25;96811.50;5006560;28;20042;-70
2022/08/23 08:25:13;;;;;;;5.50;2.20;;;;;;;31.57;34.96;96804.97;5000228;28;20049;-72
2022/08/23 08:27:40;;;;;;;4.93;2.70;;;;;;;32.15;33.80;96803.97;5003736;28;20491;-72
2022/08/23 08:30:07;;;;;;;3.70;2.50;;;;;;;31.85;35.05;96814.91;5003641;28;20049;-70
2022/08/23 08:32:33;;;;;;;4.72;2.75;;;;;;;31.17;35.87;96814.47;5006852;28;20170;-70
2022/08/23 08:34:59;;;;;;;5.93;2.90;;;;;;;30.44;37.79;96820.22;5011088;28;20038;-69
2022/08/23 08:37:24;;;;;;;3.65;2.28;;;;;;;31.66;35.58;96817.38;5021411;28;20545;-70
2022/08/23 08:39:50;;;;;;;7.18;2.55;;;;;;;31.79;35.20;96824.13;5024765;28;20109;-69
2022/08/23 08:42:47;;;;;;;5.53;2.90;;;;;;;32.05;34.12;96811.91;5014772;28;20026;-70
2022/08/23 08:45:23;;;;;;;4.85;2.63;;;;;;;30.66;35.86;96814.78;4998550;28;20053;-69
2022/08/23 08:47:51;;;;;;;4.63;2.92;;;;;;;26.04;47.46;96818.81;5012129;28;20099;-70
2022/08/23 08:50:19;;;;;;;5.15;2.90;;;;;;;28.56;42.75;96815.22;5001992;28;20038;-70
2022/08/23 08:52:50;;;;;;;6.28;2.80;;;;;;;28.79;42.29;96817.16;5019182;23;20092;-66
2022/08/23 08:55:22;;;;;;;12.65;3.05;;;;;;;28.47;41.57;96818.06;4979621;28;20448;-65
2022/08/23 08:57:52;;;;;;;6.30;2.72;;;;;;;28.13;43.25;96809.00;4984647;28;20035;-65
2022/08/23 09:00:22;;;;;;;5.57;2.88;;;;;;;27.68;43.61;96811.66;4970289;28;20129;-65
2022/08/23 09:02:48;;;;;;;6.50;2.90;;;;;;;27.17;44.52;96807.69;4985061;28;20443;-65
2022/08/23 09:05:35;;;;;;;5.47;2.88;;;;;;;24.08;52.10;96816.84;4979079;28;20482;-64
2022/08/23 09:08:19;;;;;;;5.90;3.65;;;;;;;27.09;44.84;96812.09;4982226;28;20050;-66
2022/08/23 09:10:51;;;;;;;6.28;3.10;;;;;;;25.43;47.69;96814.97;4966533;28;20491;-65
2022/08/23 09:13:52;;;;;;;9.10;2.88;;;;;;;25.97;47.22;96807.13;4960739;28;20472;-65
2022/08/23 09:16:38;;;;;;;5.03;3.10;;;;;;;28.00;42.67;96807.22;4959622;28;20039;-66
2022/08/23 09:19:05;;;;;;;4.70;3.20;;;;;;;25.82;48.13;96802.09;4961639;28;20062;-65
2022/08/23 09:21:53;;;;;;;5.65;2.70;;;;;;;26.89;43.79;96807.78;4972094;28;20050;-66
2022/08/23 09:24:19;;;;;;;6.38;2.97;;;;;;;25.37;48.07;96812.78;4940826;28;20168;-66
2022/08/23 09:26:44;;;;;;;7.80;3.05;;;;;;;25.03;48.51;96810.94;4952884;28;20138;-66
2022/08/23 09:29:27;;;;;;;4.47;2.70;;;;;;;25.44;46.79;96819.31;4959534;28;20043;-66
2022/08/23 09:31:57;;;;;;;5.78;2.90;;;;;;;25.48;47.36;96814.34;4970888;28;20484;-65
2022/08/23 09:34:38;;;;;;;6.13;2.38;;;;;;;25.69;45.22;96812.69;4965964;28;20691;-66
2022/08/23 09:37:25;;;;;;;6.05;2.70;;;;;;;27.43;41.89;96818.50;4975113;28;20038;-67
2022/08/23 09:40:35;;;;;;;4.25;2.22;;;;;;;27.59;40.36;96817.34;4975860;28;20043;-66
2022/08/23 09:43:03;;;;;;;;;;;;;;;27.27;43.79;96812.03;4956142;28;20134;-66
2022/08/23 09:45:32;;;;;;;3.10;2.05;;;;;;;29.84;37.37;96814.91;4968204;28;19918;-66
2022/08/23 09:47:57;;;;;;;6.82;2.70;;;;;;;31.15;35.03;96809.31;4964985;28;20058;-65
2022/08/23 09:50:37;;;;;;;3.30;1.85;;;;;;;32.59;32.10;96816.72;4961159;28;20047;-65
2022/08/23 09:53:14;;;;;;;4.50;2.30;;;;;;;31.44;33.94;96813.13;4973344;28;20496;-66
2022/08/23 09:55:48;;;;;;;4.65;2.13;;;;;;;29.76;37.29;96812.97;4984452;28;20104;-66
2022/08/23 09:58:17;;;;;;;4.10;2.60;;;;;;;31.49;34.00;96811.63;4978642;28;20506;-67
2022/08/23 10:00:43;;;;;;;4.50;2.60;;;;;;;31.72;33.74;96815.34;4984863;28;20073;-66
2022/08/23 10:03:27;;;;;;;3.28;2.20;;;;;;;32.23;34.03;96812.75;4972871;28;20459;-66
2022/08/23 10:05:59;;;;;;;4.35;2.30;;;;;;;31.71;32.65;96814.59;4966134;28;20515;-66
2022/08/23 10:08:30;;;;;;;5.20;2.00;;;;;;;32.07;33.13;96805.75;4970727;28;20478;-65
2022/08/23 10:11:04;;;;;;;3.78;2.30;;;;;;;31.55;33.72;96809.63;4982785;28;20046;-64
2022/08/23 10:13:29;;;;;;;3.30;2.05;;;;;;;28.17;40.11;96804.72;4983783;28;20105;-65
2022/08/23 10:16:01;;;;;;;5.90;2.40;;;;;;;29.56;37.42;96806.03;4984497;28;20057;-65
2022/08/23 10:18:53;;;;;;;3.72;1.95;;;;;;;30.05;36.39;96806.41;4973382;28;20070;-65
2022/08/23 10:21:36;;;;;;;3.92;2.10;;;;;;;30.89;34.55;96800.84;4967204;28;20101;-65
2022/08/23 10:24:18;;;;;;;8.77;2.50;;;;;;;31.63;33.69;96805.78;4983591;28;20054;-65
2022/08/23 10:30:11;;;;;;;8.02;2.13;;;;;;;30.77;33.74;96796.38;4967433;28;20054;-65
2022/08/23 10:32:48;;;;;;;4.10;2.10;;;;;;;30.66;35.52;96795.00;4977903;28;20042;-66
2022/08/23 10:35:24;;;;;;;6.95;2.47;;;;;;;31.00;35.29;96795.31;4963042;28;20039;-66
2022/08/23 10:37:49;;;;;;;4.28;2.20;;;;;;;31.78;34.60;96785.00;4964698;28;20035;-67
2022/08/23 10:40:27;;;;;;;7.22;2.50;;;;;;;31.61;33.86;96782.88;4961528;28;20042;-65
2022/08/23 10:43:14;;;;;;;6.25;2.15;;;;;;;30.65;35.62;96789.88;4974916;28;20046;-66
2022/08/23 10:45:44;;;;;;;4.68;2.28;;;;;;;27.06;41.88;96782.09;4982974;28;20065;-66
2022/08/23 10:48:20;;;;;;;8.35;2.20;;;;;;;29.10;36.43;96787.66;4969454;28;20077;-66
2022/08/23 10:50:54;;;;;;;6.53;2.00;;;;;;;28.74;35.94;96783.25;4971047;28;20491;-66
2022/08/23 10:53:20;;;;;;;5.22;1.73;;;;;;;26.31;39.68;96775.16;4969921;28;20046;-67
2022/08/23 10:56:01;;;;;;;3.92;1.83;;;;;;;26.05;38.45;96775.47;4982290;28;20104;-67
2022/08/23 10:58:31;;;;;;;2.92;1.52;;;;;;;27.10;37.54;96771.50;4979108;28;20372;-66
2022/08/23 11:00:59;;;;;;;3.90;1.50;;;;;;;27.03;38.35;96764.16;4978107;28;20035;-65
2022/08/23 11:03:35;;;;;;;9.55;2.20;;;;;;;26.17;39.42;96765.34;4969343;28;21011;-65
2022/08/23 11:06:28;;;;;;;4.60;2.05;;;;;;;25.85;40.51;96763.91;4963280;28;20042;-65
2022/08/23 11:09:17;;;;;;;5.90;1.55;;;;;;;25.78;40.67;96765.00;4963737;28;20090;-65
2022/08/23 11:11:46;;;;;;;5.93;2.05;;;;;;;25.63;38.72;96764.06;4963062;28;20101;-65
2022/08/23 11:14:26;;;;;;;4.18;1.90;;;;;;;26.01;39.76;96766.44;4969588;28;20113;-64
2022/08/23 11:17:01;;;;;;;3.53;1.77;;;;;;;25.50;41.80;96753.75;4972042;28;20046;-64
2022/08/23 11:19:48;;;;;;;3.55;1.98;;;;;;;25.82;42.71;96762.03;4973200;28;20046;-65
2022/08/23 11:22:18;;;;;;;8.60;2.28;;;;;;;25.88;40.41;96760.94;4976327;28;20039;-65
2022/08/23 11:25:02;;;;;;;4.88;2.10;;;;;;;26.23;40.28;96751.44;4982359;28;20045;-66
2022/08/23 11:27:34;;;;;;;8.55;2.55;;;;;;;26.03;41.16;96760.34;4995398;28;20038;-67
2022/08/23 11:30:30;;;;;;;5.47;2.45;;;;;;;26.04;42.53;96765.50;4981810;28;20122;-67
2022/08/23 11:33:07;;;;;;;4.00;2.20;;;;;;;26.50;43.11;96759.78;4974711;28;20050;-68
2022/08/23 11:35:41;;;;;;;2.92;1.73;;;;;;;26.19;40.00;96748.03;4982829;28;20390;-64
2022/08/23 11:38:07;;;;;;;3.97;2.00;;;;;;;26.78;38.33;96756.16;4973536;28;20042;-67
2022/08/23 11:40:56;;;;;;;4.03;1.60;;;;;;;26.67;38.24;96751.06;4978878;28;20030;-69
2022/08/23 11:43:24;;;;;;;5.03;1.98;;;;;;;26.59;38.00;96747.75;4965942;28;20115;-66
2022/08/23 11:45:50;;;;;;;5.25;2.17;;;;;;;26.36;38.42;96752.03;4973759;28;20042;-64
2022/08/23 11:48:28;;;;;;;4.03;1.65;;;;;;;26.48;38.48;96744.69;4972990;28;20487;-64
2022/08/23 11:50:59;;;;;;;4.53;2.33;;;;;;;26.03;40.34;96747.09;4978306;28;20046;-64